createdAt,value
2018-07-06T05:28:32.935Z,19.52
2018-07-06T05:36:30.763Z,19.62
2018-07-06T05:38:58.735Z,19.63
2018-07-06T05:41:28.539Z,19.61
2018-07-06T05:43:57.367Z,19.59
2018-07-06T05:46:25.460Z,19.58
2018-07-06T05:55:40.793Z,19.46
2018-07-06T05:58:09.232Z,19.46
2018-07-06T06:00:38.278Z,19.44
2018-07-06T06:03:06.607Z,19.43
2018-07-06T06:05:34.714Z,19.44
2018-07-06T06:08:02.423Z,19.43
2018-07-06T06:15:40.923Z,19.30
2018-07-06T06:18:08.606Z,19.28
2018-07-06T06:20:36.859Z,19.27
2018-07-06T06:23:04.668Z,19.25
2018-07-06T06:25:32.441Z,19.16
2018-07-06T06:28:00.718Z,19.13
2018-07-06T06:30:29.558Z,19.18
2018-07-06T06:32:57.305Z,19.23
2018-07-06T06:46:57.755Z,19.29
2018-07-06T06:53:35.528Z,19.20
2018-07-06T06:56:04.592Z,19.23
2018-07-06T06:58:33.296Z,19.29
2018-07-06T07:01:01.611Z,19.35
2018-07-06T07:03:30.345Z,19.39
2018-07-06T07:05:58.064Z,19.37
2018-07-06T07:08:26.345Z,19.32
2018-07-06T07:10:54.285Z,19.26
2018-07-06T07:13:22.211Z,19.27
2018-07-06T07:21:56.358Z,19.45
2018-07-06T07:24:24.866Z,19.44
2018-07-06T07:32:36.228Z,19.30
2018-07-06T07:35:05.155Z,19.33
2018-07-06T07:37:34.123Z,19.33
2018-07-06T07:40:02.905Z,19.33
2018-07-06T07:42:32.313Z,19.36
2018-07-06T07:47:38.567Z,19.40
2018-07-06T07:50:06.697Z,19.38
2018-07-06T07:52:36.085Z,19.41
2018-07-06T08:00:13.731Z,19.58
2018-07-06T08:05:23.824Z,19.66
2018-07-06T08:07:55.507Z,19.68
2018-07-06T08:10:25.192Z,19.79
2018-07-06T08:12:52.887Z,19.87
